Destinations Eindhoven Airport

Eindhoven Airport (EHEH / EIN)

Flights to Eindhoven Airport

Flight number From ETE Dispatch
SPY-2270 EGFF Cardiff International Airport 01:25

Flights from Eindhoven Airport

Flight number To ETE Dispatch
SPY-2271 EGFF Cardiff International Airport 01:25
About

Eindhoven Airport facts

Eindhoven Airport is located in Eindhoven at an elevation of 22.6 meters or 74 feet.

Currently, Speedy Airlines serves 2 flights to and from Eindhoven Airport.

Detailed airport info

Route map

Weather

Current weather

METAR

METAR

Metar data retrieved Sunday, 21 July 2024 at 18:25 UTC

EHEH 211755Z AUTO 30004KT 240V350 9999 NCD 23/18 Q1010 BLU NOSIG RMK TREND REMOTE BY EHWX
Wind Temperature
4 kt 23c